Rancho Santa Fe, CA (92067)

1:25 PM PST on January 24, 2017 (GMT -0800)
Rancho Santa Fe School District | | Change Station
Active Advisory: High Surf Advisory

Elev 207 ft 33.02 °N, 117.21 °W | Updated 3 minutes ago

Partly Cloudy
Partly Cloudy
57.2 °F
Feels Like 57.2 °F
N
3.0
Wind Variable Wind from SE
Gusts 6.0 mph

Today
High -- | Low -- °F
--% Chance of Precip.
Yesterday
High -- | Low -- °F
Precip. -- in
Pressure 30.01 in
Visibility 10.0 miles
Clouds Clear
Dew Point 42 °F
Humidity 57%
Rainfall 0.09 in
Snow Depth Not available.
6:48 AM 5:13 PM
Waning Crescent, 10% visible
METAR KCRQ 242053Z AUTO VRB04KT 10SM CLR 13/04 A3001 RMK AO2 RAE13 SLP161 P0000 60000 T01280039 58010
Pressure 30.01 in
Visibility 10.0 miles
Clouds Clear
Dew Point 42 °F
Humidity 57%
Rainfall 0.09 in
Snow Depth Not available.
6:48 AM 5:13 PM
Waning Crescent, 10% visible
METAR KCRQ 242053Z AUTO VRB04KT 10SM CLR 13/04 A3001 RMK AO2 RAE13 SLP161 P0000 60000 T01280039 58010

Get Your Daily Forecast Email!

Thanks for signing up!

Be on the lookout for a verification email in your inbox.

You'll start receiving the daily forecast at 8 AM.

×

10-Day Weather Forecast

Almanac

Astronomy

Jan. 24, 2017 Rise Set
Actual Time
Civil Twilight
Nautical Twilight
Astronomical Twilight
Moon
Length of Visible Light
Length of Day
Tomorrow will be .
, % of the Moon is Illuminated

Today's Extremes

State Highs State Lows

Community

WunderPhotos

Upload Photos

1,962,540 photos uploaded!

WunderBlog® & News

Nearby

Air Quality

  Air Quality AQ Index Pollutant
Not available.

Snow Depth

Station Depth Elevation

Earthquake Activity

City Distance Mag. Time & Date
Minimum magnitude displayed is 2.5.

Coastal Water Temperatures

Place Temperature

Stations

Nearby Weather Stations

Station Location Temp. Windchill Dew Point Humidity Wind Precip. Elev Updated Type
                   

Watches & Warnings

High Surf Advisory
Issued: 1:42 AM PST Jan. 24, 2017 – National Weather Service

... High surf advisory remains in effect until 9 am PST
Wednesday...

* surf... 5 to 8 feet with sets to 11 feet today... lowering to 4 to
6 feet Wednesday morning. Highest surf south of Carlsbad.

* Tides... 5.4 ft at 634 am today.

* Impacts... strong rip currents and dangerous swimming
conditions. Large waves can wash people off jetties and rocks.

Precautionary/preparedness actions...

A high surf advisory means that high surf will affect beaches in
the advisory area... producing rip currents and localized beach
erosion.



Mm